• Join FlightAware (Why Join?)
  • Login
  • US Flag 
04:42PM EDT


 

Airport Tracker/Info


-or-


 

Live Flight TrackerFlight Track Log ✈ UAL1036 ✈ 17-Aug-2013 ✈ SEQM / UIO - KIAH

Flight Track Log - Related Links

Times and Time Zones

All times are in EDT time to prevent confusion due to time zone crossing. See the UAL1036 flight status page for this flight to view local times or setup timezone preferences in your user account.

Time Position Orientation Groundspeed Altitude Reporting Facility
EDT Latitude Longitude Course Direction KTS MPH feet Rate Location/Type
02:53AM 0.2011 -78.6510 335° Northwest  Level FlightAware Approximate
02:54AM 0.2867 -78.6917 335° Northwest  Level FlightAware Approximate
02:55AM 0.3722 -78.7324 335° Northwest  Level FlightAware Approximate
02:56AM 0.4578 -78.7731 335° Northwest  Level FlightAware Approximate
02:57AM 0.5433 -78.8138 335° Northwest  Level FlightAware Approximate
02:58AM 0.6289 -78.8545 335° Northwest  Level FlightAware Approximate
02:59AM 0.7145 -78.8952 335° Northwest  Level FlightAware Approximate
03:00AM 0.8000 -78.9359 335° Northwest  Level FlightAware Approximate
03:01AM 0.8856 -78.9766 335° Northwest  Level FlightAware Approximate
03:02AM 0.9711 -79.0173 335° Northwest  Level FlightAware Approximate
03:03AM 1.0567 -79.0581 335° Northwest  Level FlightAware Approximate
03:04AM 1.1423 -79.0988 335° Northwest  Level FlightAware Approximate
03:05AM 1.2278 -79.1395 335° Northwest  Level FlightAware Approximate
03:06AM 1.3134 -79.1802 335° Northwest  Level FlightAware Approximate
03:07AM 1.3989 -79.2209 335° Northwest  Level FlightAware Approximate
03:08AM 1.4845 -79.2617 335° Northwest  Level FlightAware Approximate
03:09AM 1.5700 -79.3024 335° Northwest  Level FlightAware Approximate
03:10AM 1.6296 -79.3337 330° Northwest  Level FlightAware Approximate
03:11AM 1.7118 -79.3809 330° Northwest  Level FlightAware Approximate
03:12AM 1.7939 -79.4280 330° Northwest  Level FlightAware Approximate
03:13AM 1.8761 -79.4752 330° Northwest  Level FlightAware Approximate
03:14AM 1.9583 -79.5224 330° Northwest  Level FlightAware Approximate
03:15AM 2.0405 -79.5696 330° Northwest  Level FlightAware Approximate
03:16AM 2.1226 -79.6168 330° Northwest  Level FlightAware Approximate
03:17AM 2.2048 -79.6640 330° Northwest  Level FlightAware Approximate
03:18AM 2.2870 -79.7113 330° Northwest  Level FlightAware Approximate
03:19AM 2.3691 -79.7585 330° Northwest  Level FlightAware Approximate
03:20AM 2.4516 -79.8051 331° Northwest  Level FlightAware Approximate
03:21AM 2.5342 -79.8516 331° Northwest  Level FlightAware Approximate
03:22AM 2.6168 -79.8981 331° Northwest  Level FlightAware Approximate
03:23AM 2.6994 -79.9446 331° Northwest  Level FlightAware Approximate
03:24AM 2.8033 -80.0032 331° Northwest  Level FlightAware Approximate
03:25AM 2.9072 -80.0617 331° Northwest  Level FlightAware Approximate
03:26AM 3.0111 -80.1203 331° Northwest  Level FlightAware Approximate
03:27AM 3.1151 -80.1788 331° Northwest  Level FlightAware Approximate
03:28AM 3.2190 -80.2374 331° Northwest  Level FlightAware Approximate
03:29AM 3.3229 -80.2960 331° Northwest  Level FlightAware Approximate
03:30AM 3.4268 -80.3547 331° Northwest  Level FlightAware Approximate
03:31AM 3.5307 -80.4133 331° Northwest  Level FlightAware Approximate
03:32AM 3.6346 -80.4719 331° Northwest  Level FlightAware Approximate
03:33AM 3.7385 -80.5306 331° Northwest  Level FlightAware Approximate
03:34AM 3.8424 -80.5892 331° Northwest  Level FlightAware Approximate
03:35AM 3.9463 -80.6479 331° Northwest  Level FlightAware Approximate
03:36AM 4.0496 -80.7077 330° Northwest  Level FlightAware Approximate
03:37AM 4.1528 -80.7675 330° Northwest  Level FlightAware Approximate
03:38AM 4.2561 -80.8273 330° Northwest  Level FlightAware Approximate
03:39AM 4.3593 -80.8872 330° Northwest  Level FlightAware Approximate
03:40AM 4.4625 -80.9471 330° Northwest  Level FlightAware Approximate
03:41AM 4.5658 -81.0070 330° Northwest  Level FlightAware Approximate
03:42AM 4.6690 -81.0669 330° Northwest  Level FlightAware Approximate
03:43AM 4.7722 -81.1268 330° Northwest  Level FlightAware Approximate
03:44AM 4.8754 -81.1868 330° Northwest  Level FlightAware Approximate
03:45AM 4.9786 -81.2467 330° Northwest  Level FlightAware Approximate
03:46AM 5.0818 -81.3067 330° Northwest  Level FlightAware Approximate
03:47AM 5.1850 -81.3667 330° Northwest  Level FlightAware Approximate
03:48AM 5.2882 -81.4267 330° Northwest  Level FlightAware Approximate
03:49AM 5.3914 -81.4868 330° Northwest  Level FlightAware Approximate
03:50AM 5.4946 -81.5468 330° Northwest  Level FlightAware Approximate
03:51AM 5.5982 -81.6061 330° Northwest  Level FlightAware Approximate
03:52AM 5.7018 -81.6654 330° Northwest  Level FlightAware Approximate
03:53AM 5.8055 -81.7247 330° Northwest  Level FlightAware Approximate
03:54AM 5.9091 -81.7840 330° Northwest  Level FlightAware Approximate
03:55AM 6.0127 -81.8433 330° Northwest  Level FlightAware Approximate
03:56AM 6.1164 -81.9027 330° Northwest  Level FlightAware Approximate
03:57AM 6.2200 -81.9620 330° Northwest  Level FlightAware Approximate
03:58AM 6.3236 -82.0214 330° Northwest  Level FlightAware Approximate
03:59AM 6.4272 -82.0809 330° Northwest  Level FlightAware Approximate
04:00AM 6.5308 -82.1403 330° Northwest  Level FlightAware Approximate
04:01AM 6.6344 -82.1998 330° Northwest  Level FlightAware Approximate
04:02AM 6.7379 -82.2593 330° Northwest  Level FlightAware Approximate
04:03AM 6.8415 -82.3188 330° Northwest  Level FlightAware Approximate
04:04AM 6.9451 -82.3783 330° Northwest  Level FlightAware Approximate
04:05AM 7.0486 -82.4379 330° Northwest  Level FlightAware Approximate
04:06AM 7.1522 -82.4975 330° Northwest  Level FlightAware Approximate
04:07AM 7.2557 -82.5572 330° Northwest  Level FlightAware Approximate
04:08AM 7.3593 -82.6168 330° Northwest  Level FlightAware Approximate
04:09AM 7.4628 -82.6765 330° Northwest  Level FlightAware Approximate
04:10AM 7.5663 -82.7362 330° Northwest  Level FlightAware Approximate
04:11AM 7.6698 -82.7959 330° Northwest  Level FlightAware Approximate
04:12AM 7.7733 -82.8557 330° Northwest  Level FlightAware Approximate
04:13AM 7.8769 -82.9155 330° Northwest  Level FlightAware Approximate
04:14AM 7.9805 -82.9751 330° Northwest  Level FlightAware Approximate
04:15AM 8.0840 -83.0348 330° Northwest  Level FlightAware Approximate
04:16AM 8.1876 -83.0945 330° Northwest  Level FlightAware Approximate
04:17AM 8.2912 -83.1543 330° Northwest  Level FlightAware Approximate
04:18AM 8.3947 -83.2140 330° Northwest  Level FlightAware Approximate
04:19AM 8.4983 -83.2738 330° Northwest  Level FlightAware Approximate
04:20AM 8.6018 -83.3337 330° Northwest  Level FlightAware Approximate
04:21AM 8.7053 -83.3935 330° Northwest  Level FlightAware Approximate
04:22AM 8.8088 -83.4535 330° Northwest  Level FlightAware Approximate
04:23AM 8.9123 -83.5134 330° Northwest  Level FlightAware Approximate
04:24AM 9.0158 -83.5734 330° Northwest  Level FlightAware Approximate
04:25AM 9.1193 -83.6334 330° Northwest  Level FlightAware Approximate
04:26AM 9.2228 -83.6934 330° Northwest  Level FlightAware Approximate
04:27AM 9.3263 -83.7535 330° Northwest  Level FlightAware Approximate
04:28AM 9.4297 -83.8136 330° Northwest  Level FlightAware Approximate
04:29AM 9.5331 -83.8738 330° Northwest  Level FlightAware Approximate
04:30AM 9.6366 -83.9340 330° Northwest  Level FlightAware Approximate
04:31AM 9.7400 -83.9942 330° Northwest  Level FlightAware Approximate
04:32AM 9.8433 -84.0547 330° Northwest  Level FlightAware Approximate
04:33AM 9.9465 -84.1153 330° Northwest  Level FlightAware Approximate
04:34AM 10.0497 -84.1759 330° Northwest  Level FlightAware Approximate
04:35AM 10.1529 -84.2366 330° Northwest  Level FlightAware Approximate
04:36AM 10.2561 -84.2973 330° Northwest  Level FlightAware Approximate
04:37AM 10.3593 -84.3581 330° Northwest  Level FlightAware Approximate
04:38AM 10.4625 -84.4189 330° Northwest  Level FlightAware Approximate
04:39AM 10.5657 -84.4797 330° Northwest  Level FlightAware Approximate
04:40AM 10.6688 -84.5406 330° Northwest  Level FlightAware Approximate
04:41AM 10.7719 -84.6015 330° Northwest  Level FlightAware Approximate
04:42AM 10.8751 -84.6625 330° Northwest  Level FlightAware Approximate
04:43AM 10.9782 -84.7235 330° Northwest  Level FlightAware Approximate
04:44AM 11.0813 -84.7845 330° Northwest  Level FlightAware Approximate
04:45AM 11.1844 -84.8456 330° Northwest  Level FlightAware Approximate
04:46AM 11.2875 -84.9067 330° Northwest  Level FlightAware Approximate
04:47AM 11.3905 -84.9679 330° Northwest  Level FlightAware Approximate
04:48AM 11.4936 -85.0291 330° Northwest  Level FlightAware Approximate
04:49AM 11.5967 -85.0904 330° Northwest  Level FlightAware Approximate
04:50AM 11.6997 -85.1517 330° Northwest  Level FlightAware Approximate
04:51AM 11.8031 -85.2132 330° Northwest  Level FlightAware Approximate
04:52AM 11.9064 -85.2749 330° Northwest  Level FlightAware Approximate
04:53AM 12.0098 -85.3365 330° Northwest  Level FlightAware Approximate
04:54AM 12.1131 -85.3982 330° Northwest  Level FlightAware Approximate
04:55AM 12.2164 -85.4600 330° Northwest  Level FlightAware Approximate
04:56AM 12.3198 -85.5217 330° Northwest  Level FlightAware Approximate
04:57AM 12.4232 -85.5834 330° Northwest  Level FlightAware Approximate
04:58AM 12.5266 -85.6450 330° Northwest  Level FlightAware Approximate
04:59AM 12.6300 -85.7068 330° Northwest  Level FlightAware Approximate
05:00AM 12.7333 -85.7686 330° Northwest  Level FlightAware Approximate
05:01AM 12.8367 -85.8304 330° Northwest  Level FlightAware Approximate
05:02AM 12.9400 -85.8923 330° Northwest  Level FlightAware Approximate
05:03AM 13.0434 -85.9542 330° Northwest  Level FlightAware Approximate
05:04AM 13.1467 -86.0162 330° Northwest  Level FlightAware Approximate
05:05AM 13.2500 -86.0783 330° Northwest  Level FlightAware Approximate
05:06AM 13.3533 -86.1404 330° Northwest  Level FlightAware Approximate
05:07AM 13.4565 -86.2025 330° Northwest  Level FlightAware Approximate
05:08AM 13.5598 -86.2647 330° Northwest  Level FlightAware Approximate
05:09AM 13.6630 -86.3270 330° Northwest  Level FlightAware Approximate
05:10AM 13.7662 -86.3893 330° Northwest  Level FlightAware Approximate
05:11AM 13.8694 -86.4517 330° Northwest  Level FlightAware Approximate
05:12AM 13.9728 -86.5138 330° Northwest  Level FlightAware Approximate
05:13AM 14.0761 -86.5761 330° Northwest  Level FlightAware Approximate
05:14AM 14.1794 -86.6384 330° Northwest  Level FlightAware Approximate
05:15AM 14.2827 -86.7007 330° Northwest  Level FlightAware Approximate
05:16AM 14.3859 -86.7631 330° Northwest  Level FlightAware Approximate
05:17AM 14.4892 -86.8256 330° Northwest  Level FlightAware Approximate
05:18AM 14.5924 -86.8881 330° Northwest  Level FlightAware Approximate
05:19AM 14.6956 -86.9507 330° Northwest  Level FlightAware Approximate
05:20AM 14.7988 -87.0133 330° Northwest  Level FlightAware Approximate
05:21AM 14.9020 -87.0760 330° Northwest  Level FlightAware Approximate
05:22AM 15.0052 -87.1388 330° Northwest  Level FlightAware Approximate
05:23AM 15.1083 -87.2016 330° Northwest  Level FlightAware Approximate
05:24AM 15.2115 -87.2645 330° Northwest  Level FlightAware Approximate
05:25AM 15.3146 -87.3274 330° Northwest  Level FlightAware Approximate
05:26AM 15.4177 -87.3904 330° Northwest  Level FlightAware Approximate
05:27AM 15.5201 -87.4546 329° Northwest  Level FlightAware Approximate
05:28AM 15.6224 -87.5191 329° Northwest  Level FlightAware Approximate
05:29AM 15.7247 -87.5836 329° Northwest  Level FlightAware Approximate
05:30AM 15.8269 -87.6482 329° Northwest  Level FlightAware Approximate
05:31AM 15.9291 -87.7129 329° Northwest  Level FlightAware Approximate
05:32AM 16.0313 -87.7776 329° Northwest  Level FlightAware Approximate
05:33AM 16.1344 -87.8409 330° Northwest  Level FlightAware Approximate
05:34AM 16.2379 -87.9034 330° Northwest  Level FlightAware Approximate
05:35AM 16.3414 -87.9659 330° Northwest  Level FlightAware Approximate
05:36AM 16.4449 -88.0286 330° Northwest  Level FlightAware Approximate
05:36AM 17.6790 -88.3100 330° Northwest 445 512 36,000  Level FlightAware
05:36AM 17.7380 -88.3390 335° Northwest 445 512 36,000  Level FlightAware
05:37AM 17.8210 -88.3770 336° Northwest 446 513 36,000  Level FlightAware
05:37AM 17.8920 -88.4100 336° Northwest 446 513 36,000  Level FlightAware
05:38AM 17.9470 -88.4360 336° Northwest 446 513 36,000  Level FlightAware
05:39AM 18.0310 -88.4760 336° Northwest 445 512 36,000  Level FlightAware
05:39AM 18.0880 -88.5040 335° Northwest 445 512 36,000  Level FlightAware
05:40AM 18.1790 -88.5450 337° Northwest 445 512 36,000  Level FlightAware
05:41AM 18.2430 -88.5750 336° Northwest 445 512 36,000  Level FlightAware
05:41AM 18.3140 -88.6090 336° Northwest 445 512 36,000  Level FlightAware
05:42AM 18.3810 -88.6410 336° Northwest 444 511 36,000  Level FlightAware
05:42AM 18.4400 -88.6840 325° Northwest 446 513 36,000  Level FlightAware
05:43AM 18.4960 -88.7320 321° Northwest 446 513 36,000  Level FlightAware
05:44AM 18.5610 -88.7890 320° Northwest 445 512 36,000  Level FlightAware
05:44AM 18.6140 -88.8350 321° Northwest 443 510 36,000  Level FlightAware
05:45AM 18.6720 -88.8850 321° Northwest 443 510 36,000  Level FlightAware
05:45AM 18.7290 -88.9340 321° Northwest 444 511 36,000  Level FlightAware
05:46AM 18.7860 -88.9840 320° Northwest 443 510 36,000  Level FlightAware
05:46AM 18.8280 -89.0200 321° Northwest 445 512 36,000  Level FlightAware
05:47AM 18.8970 -89.0800 321° Northwest 445 512 36,000  Level FlightAware
05:48AM 18.9480 -89.1240 321° Northwest 445 512 36,000  Level FlightAware
05:48AM 19.0030 -89.1730 320° Northwest 445 512 36,000  Level FlightAware
05:49AM 19.0580 -89.2200 321° Northwest 447 514 36,000  Level FlightAware
05:49AM 19.1210 -89.2750 320° Northwest 448 516 36,000  Level FlightAware
05:50AM 19.1730 -89.3210 320° Northwest 449 517 36,000  Level FlightAware
05:51AM 19.2300 -89.3710 320° Northwest 450 518 36,000  Level FlightAware
05:51AM 19.2850 -89.4190 321° Northwest 450 518 36,000  Level FlightAware
05:52AM 19.3440 -89.4700 321° Northwest 448 516 36,000  Level FlightAware
05:52AM 19.3960 -89.5150 321° Northwest 447 514 36,000  Level FlightAware
05:53AM 19.4550 -89.5680 320° Northwest 446 513 36,000  Level FlightAware
05:54AM 19.5120 -89.6170 321° Northwest 447 514 36,000  Level FlightAware
05:54AM 19.5630 -89.6630 320° Northwest 446 513 36,000  Level FlightAware
05:55AM 19.6240 -89.7160 321° Northwest 445 512 36,000  Level FlightAware
05:55AM 19.6820 -89.7670 320° Northwest 445 512 36,000  Level FlightAware
05:56AM 19.7370 -89.8160 320° Northwest 441 507 36,000  Level FlightAware
05:56AM 19.7880 -89.8600 321° Northwest 438 504 36,000  Level FlightAware
05:57AM 19.8440 -89.9100 320° Northwest 436 502 36,000  Level FlightAware
05:58AM 19.9000 -89.9590 321° Northwest 434 499 36,000  Level FlightAware
05:58AM 19.9470 -90.0010 320° Northwest 432 497 36,000  Level FlightAware
05:59AM 20.0040 -90.0510 321° Northwest 431 496 36,000  Level FlightAware
05:59AM 20.0600 -90.1010 320° Northwest 432 497 36,000  Level FlightAware
06:00AM 20.1150 -90.1490 321° Northwest 432 497 36,000  Level FlightAware
06:00AM 20.1650 -90.1940 320° Northwest 432 497 36,000  Level FlightAware
06:01AM 20.2190 -90.2420 320° Northwest 432 497 36,000  Level FlightAware
06:02AM 20.2750 -90.2920 320° Northwest 432 497 36,000  Level FlightAware
06:02AM 20.3240 -90.3350 321° Northwest 432 497 36,000  Level FlightAware
06:03AM 20.3790 -90.3850 320° Northwest 432 497 36,000  Level FlightAware
06:03AM 20.4340 -90.4340 320° Northwest 432 497 36,000  Level FlightAware
06:04AM 20.4880 -90.4820 320° Northwest 432 497 36,000  Level FlightAware
06:05AM 20.5440 -90.5320 320° Northwest 433 498 36,000  Level FlightAware
06:05AM 20.5930 -90.5760 320° Northwest 435 501 36,000  Level FlightAware
06:06AM 20.6490 -90.6260 320° Northwest 436 502 36,000  Level FlightAware
06:06AM 20.7050 -90.6760 320° Northwest 438 504 36,000 540 Level FlightAware
06:07AM 20.7610 -90.7260 320° Northwest 434 499 36,700 1,140 Climbing FlightAware
06:08AM 20.8170 -90.7760 320° Northwest 431 496 37,400 960 Climbing FlightAware
06:08AM 20.8660 -90.8200 320° Northwest 430 495 37,800 480 Climbing FlightAware
06:09AM 20.9200 -90.8690 320° Northwest 434 499 38,000 120 Climbing FlightAware
06:09AM 20.9690 -90.9130 320° Northwest 435 501 38,000  Level FlightAware
06:10AM 21.0300 -90.9690 319° Northwest 435 501 38,000  Level FlightAware
06:10AM 21.0800 -91.0130 321° Northwest 434 499 38,000  Level FlightAware
06:11AM 21.1330 -91.0530 325° Northwest 435 501 38,000  Level FlightAware
06:12AM 21.2040 -91.0860 337° Northwest 435 501 38,000  Level FlightAware
06:12AM 21.2550 -91.1080 338° Northwest 435 501 38,000  Level FlightAware
06:13AM 21.3220 -91.1370 338° Northwest 436 502 38,000  Level FlightAware
06:13AM 21.3890 -91.1650 339° North 437 503 38,000  Level FlightAware
06:14AM 21.4520 -91.1920 338° Northwest 438 504 38,000  Level FlightAware
06:14AM 21.5190 -91.2210 338° Northwest 439 505 38,000  Level FlightAware
06:15AM 21.5900 -91.2530 337° Northwest 440 506 38,000  Level FlightAware
06:16AM 21.6480 -91.2790 337° Northwest 440 506 38,000  Level FlightAware
06:16AM 21.7070 -91.3060 337° Northwest 440 506 38,000  Level FlightAware
06:17AM 21.7610 -91.3310 337° Northwest 440 506 38,000  Level FlightAware
06:17AM 21.8180 -91.3570 337° Northwest 440 506 38,000  Level FlightAware
06:18AM 21.8750 -91.3830 337° Northwest 440 506 38,000  Level FlightAware
06:19AM 21.9340 -91.4100 337° Northwest 440 506 38,000  Level FlightAware
06:19AM 21.9930 -91.4370 337° Northwest 440 506 38,000  Level FlightAware
06:20AM 22.0510 -91.4630 337° Northwest 440 506 38,000  Level FlightAware
06:21AM 22.1080 -91.4900 336° Northwest 440 506 38,000  Level FlightAware
06:21AM 22.1670 -91.5170 337° Northwest 440 506 38,000  Level FlightAware
06:22AM 22.2260 -91.5440 337° Northwest 440 506 38,000  Level FlightAware
06:22AM 22.2830 -91.5700 337° Northwest 440 506 38,000  Level FlightAware
06:23AM 22.3440 -91.5980 337° Northwest 440 506 38,000  Level FlightAware
06:24AM 22.4010 -91.6240 337° Northwest 440 506 38,000  Level FlightAware
06:24AM 22.4580 -91.6500 337° Northwest 440 506 38,000  Level FlightAware
06:27AM 22.7225 -91.7402 343° North  Level FlightAware Approximate
06:28AM 22.8357 -91.7827 338° Northwest  Level FlightAware Approximate
06:29AM 22.9455 -91.8320 338° Northwest  Level FlightAware Approximate
06:30AM 23.0552 -91.8814 337° Northwest  Level FlightAware Approximate
06:31AM 23.1651 -91.9308 338° Northwest  Level FlightAware Approximate
06:32AM 23.2750 -91.9798 338° Northwest  Level FlightAware Approximate
06:33AM 23.3850 -92.0289 338° Northwest  Level FlightAware Approximate
06:34AM 23.4949 -92.0781 338° Northwest  Level FlightAware Approximate
06:35AM 23.6049 -92.1273 338° Northwest  Level FlightAware Approximate
06:36AM 23.7148 -92.1767 338° Northwest  Level FlightAware Approximate
06:37AM 23.8246 -92.2262 338° Northwest  Level FlightAware Approximate
06:38AM 23.9345 -92.2759 338° Northwest  Level FlightAware Approximate
06:39AM 24.0443 -92.3257 338° Northwest  Level FlightAware Approximate
06:40AM 24.1540 -92.3756 337° Northwest  Level FlightAware Approximate
06:41AM 24.2638 -92.4255 337° Northwest  Level FlightAware Approximate
06:42AM 24.3735 -92.4755 337° Northwest  Level FlightAware Approximate
06:43AM 24.4833 -92.5257 337° Northwest  Level FlightAware Approximate
06:44AM 24.5887 -92.5858 332° Northwest  Level FlightAware Approximate
06:45AM 24.6933 -92.6479 332° Northwest  Level FlightAware Approximate
06:46AM 24.8005 -92.7063 334° Northwest  Level FlightAware Approximate
06:47AM 24.9062 -92.7680 331° Northwest  Level FlightAware Approximate
06:48AM 25.0106 -92.8326 331° Northwest  Level FlightAware Approximate
06:49AM 25.1149 -92.8972 331° Northwest  Level FlightAware Approximate
06:50AM 25.2197 -92.9609 333° Northwest  Level FlightAware Approximate
06:51AM 25.3266 -93.0203 333° Northwest  Level FlightAware Approximate
06:52AM 25.4320 -93.0828 331° Northwest  Level FlightAware Approximate
06:53AM 25.5370 -93.1463 331° Northwest  Level FlightAware Approximate
06:54AM 25.6420 -93.2099 331° Northwest  Level FlightAware Approximate
06:55AM 25.7470 -93.2736 331° Northwest  Level FlightAware Approximate
06:55AM 26.1205 -93.5097 331° Northwest 455 524 38,000  Level FlightAware ADS-B
06:55AM 26.1837 -93.5484 331° Northwest 455 524 38,000  Level FlightAware ADS-B
06:58AM 26.4266 -93.6971 330° Northwest  Level FlightAware Approximate
06:58AM 26.4661 -93.7219 330° Northwest 456 525 38,000  Level FlightAware ADS-B
06:58AM 26.5197 -93.7541 332° Northwest 458 527 38,000  Level FlightAware ADS-B
06:59AM 26.5662 -93.7740 339° North 462 532 38,000  Level FlightAware ADS-B
07:00AM 26.7184 -93.8091 348° North 463 533 38,000  Level FlightAware ADS-B
07:00AM 26.7821 -93.8214 350° North 463 533 38,000  Level FlightAware ADS-B
07:01AM 26.8466 -93.8329 351° North 463 533 38,000  Level FlightAware ADS-B
07:01AM 26.9105 -93.8443 351° North 462 532 38,000  Level FlightAware ADS-B
07:02AM 26.9749 -93.8561 351° North 462 532 38,000  Level FlightAware ADS-B
07:03AM 27.0614 -93.8722 351° North 461 531 38,000  Level FlightAware ADS-B
07:03AM 27.1253 -93.8842 351° North 462 532 38,000  Level FlightAware ADS-B
07:04AM 27.2488 -93.9075 350° North 463 533 38,000  Level FlightAware ADS-B
07:05AM 27.3133 -93.9196 351° North 464 534 38,000  Level FlightAware ADS-B
07:05AM 27.4109 -93.9379 351° North 464 534 38,000  Level FlightAware ADS-B
07:06AM 27.4758 -93.9501 351° North 464 534 38,000  Level FlightAware ADS-B
07:06AM 27.5409 -93.9624 350° North 463 533 38,000  Level FlightAware ADS-B
07:07AM 27.6057 -93.9746 351° North 463 533 38,000  Level FlightAware ADS-B
07:07AM 27.6713 -93.9870 350° North 462 532 38,000  Level FlightAware ADS-B
07:08AM 27.7351 -93.9990 351° North 462 532 38,000  Level FlightAware ADS-B
07:09AM 27.8209 -94.0152 351° North 462 532 38,000  Level FlightAware ADS-B
07:09AM 27.8844 -94.0272 351° North 462 532 38,000  Level FlightAware ADS-B
07:10AM 27.9485 -94.0394 350° North 461 531 38,000  Level FlightAware ADS-B
07:10AM 28.0166 -94.0523 351° North 460 529 38,000  Level FlightAware ADS-B
07:11AM 28.0945 -94.0671 350° North 459 528 38,000  Level FlightAware ADS-B
07:11AM 28.1626 -94.0801 350° North 458 527 38,000  Level FlightAware ADS-B
07:12AM 28.2275 -94.0925 350° North 458 527 38,000  Level FlightAware ADS-B
07:12AM 28.2911 -94.1046 350° North 459 528 38,000 -540 Level FlightAware ADS-B
07:13AM 28.3552 -94.1169 350° North 454 522 37,500 -1,680 Descending FlightAware ADS-B
07:13AM 28.4185 -94.1290 350° North 457 526 36,300 -2,700 Descending FlightAware ADS-B
07:14AM 28.4820 -94.1411 350° North 464 534 34,800 -3,000 Descending FlightAware ADS-B
07:14AM 28.5472 -94.1536 350° North 470 541 33,300 -3,060 Descending FlightAware ADS-B
07:15AM 28.6120 -94.1661 350° North 472 543 31,700 -3,180 Descending FlightAware ADS-B
07:15AM 28.6778 -94.1783 351° North 466 536 30,100 -2,940 Descending FlightAware ADS-B
07:16AM 28.7420 -94.1896 351° North 456 525 28,800 -2,520 Descending FlightAware ADS-B
07:16AM 28.8280 -94.2074 350° North 450 518 27,100 -2,520 Descending FlightAware ADS-B
07:17AM 28.8892 -94.2198 350° North 440 506 25,800 -540 Descending FlightAware ADS-B
07:18AM 28.9680 -94.2380 349° North 442 509 26,400 -2,340 Climbing FlightAware
07:18AM 29.0460 -94.2500 352° North 419 482 22,700 -4,740 Descending FlightAware
07:19AM 29.1020 -94.2600 351° North 411 473 21,600 -960 Descending FlightAware
07:19AM 29.1640 -94.2730 350° North 411 473 21,600 -2,220 Level FlightAware
07:20AM 29.2748 -94.2944 350° North 387 445 18,200 -3,540 Descending FlightAware ADS-B
07:20AM 29.2842 -94.2973 345° North 383 441 18,100 -1,140 Descending FlightAware ADS-B
07:21AM 29.2934 -94.3011 340° North 380 437 18,000 -1,440 Descending FlightAware ADS-B
07:21AM 29.3053 -94.3074 335° Northwest 379 436 17,800 -1,140 Descending FlightAware ADS-B
07:21AM 29.3179 -94.3158 330° Northwest 379 436 17,700 -720 Descending FlightAware ADS-B
07:21AM 29.3292 -94.3253 324° Northwest 379 436 17,600 -960 Descending FlightAware ADS-B
07:21AM 29.3685 -94.3658 318° Northwest 379 436 17,100 -1,020 Descending FlightAware ADS-B
07:22AM 29.4078 -94.4062 318° Northwest 375 432 16,600 -1,500 Descending FlightAware ADS-B
07:22AM 29.4469 -94.4463 318° Northwest 372 428 15,600 -2,040 Descending FlightAware ADS-B
07:23AM 29.4853 -94.4859 318° Northwest 368 423 14,600 -2,160 Descending FlightAware ADS-B
07:23AM 29.5210 -94.5227 318° Northwest 365 420 13,500 -2,280 Descending FlightAware ADS-B
07:24AM 29.5590 -94.5620 318° Northwest 364 419 12,400 -2,220 Descending FlightAware ADS-B
07:24AM 29.5961 -94.6006 318° Northwest 360 414 11,300 -2,040 Descending FlightAware ADS-B
07:25AM 29.6336 -94.6393 318° Northwest 348 400 10,400 -1,200 Descending FlightAware ADS-B
07:25AM 29.6685 -94.6754 318° Northwest 323 372 10,100 -540 Descending FlightAware ADS-B
07:26AM 29.6847 -94.6921 318° Northwest 309 356 10,000 -960 Descending FlightAware ADS-B
07:26AM 29.7160 -94.7245 318° Northwest 297 342 9,400 -1,200 Descending FlightAware ADS-B
07:26AM 29.7320 -94.7411 318° Northwest 293 337 9,100 -1,380 Descending FlightAware ADS-B
07:27AM 29.7475 -94.7573 318° Northwest 290 334 8,700 -1,440 Descending FlightAware ADS-B
07:27AM 29.7626 -94.7730 318° Northwest 287 330 8,400 -1,200 Descending FlightAware ADS-B
07:27AM 29.7779 -94.7888 318° Northwest 285 328 8,100 -1,380 Descending FlightAware ADS-B
07:28AM 29.7924 -94.8040 318° Northwest 282 325 7,700 -1,620 Descending FlightAware ADS-B
07:28AM 29.8070 -94.8192 318° Northwest 282 325 7,300 -1,620 Descending FlightAware ADS-B
07:28AM 29.8217 -94.8344 318° Northwest 283 326 6,900 -1,440 Descending FlightAware ADS-B
07:28AM 29.8366 -94.8498 318° Northwest 280 322 6,600 -1,200 Descending FlightAware ADS-B
07:29AM 29.8509 -94.8647 318° Northwest 278 320 6,300 -1,380 Descending FlightAware ADS-B
07:29AM 29.8654 -94.8798 318° Northwest 277 319 5,900 -1,380 Descending FlightAware ADS-B
07:29AM 29.8796 -94.8947 318° Northwest 273 314 5,600 -1,020 Descending FlightAware ADS-B
07:29AM 29.8937 -94.9094 318° Northwest 266 306 5,400 -1,020 Descending FlightAware ADS-B
07:30AM 29.9073 -94.9237 318° Northwest 261 300 5,100 -1,200 Descending FlightAware ADS-B
07:30AM 29.9210 -94.9380 318° Northwest 257 296 4,800 -1,200 Descending FlightAware ADS-B
07:30AM 29.9346 -94.9520 318° Northwest 253 291 4,500 -1,380 Descending FlightAware ADS-B
07:30AM 29.9481 -94.9662 318° Northwest 255 293 4,100 -1,500 Descending FlightAware ADS-B
07:31AM 29.9673 -94.9867 316° Northwest 260 299 3,600 -1,440 Descending FlightAware ADS-B
07:31AM 29.9700 -94.9901 313° West 261 300 3,500 -1,020 Descending FlightAware ADS-B
07:31AM 29.9748 -94.9994 296° West 265 305 3,400 -600 Descending FlightAware ADS-B
07:31AM 29.9762 -95.0038 290° West 267 307 3,400 -1,020 Level FlightAware ADS-B
07:31AM 29.9771 -95.0084 283° West 267 307 3,300 -1,200 Descending FlightAware ADS-B
07:31AM 29.9777 -95.0185 272° West 268 308 3,200 -840 Descending FlightAware ADS-B
07:31AM 29.9775 -95.0397 269° West 262 302 3,000 -780 Descending FlightAware ADS-B
07:32AM 29.9775 -95.0968 270° West 243 280 2,500 -720 Descending FlightAware ADS-B
07:32AM 29.9775 -95.1291 270° West 233 268 2,200 -600 Descending FlightAware ADS-B
07:33AM 29.9775 -95.1480 270° West 230 265 2,100 -480 Descending FlightAware ADS-B
07:33AM 29.9775 -95.1787 270° West 214 246 1,900 -360 Descending FlightAware ADS-B
07:33AM 29.9775 -95.1880 270° West 205 236 1,900 -780 Level FlightAware ADS-B
07:34AM 29.9777 -95.2048 271° West 193 222 1,600 -960 Descending FlightAware ADS-B
07:34AM 29.9776 -95.2222 270° West 182 209 1,400 -900 Descending FlightAware ADS-B
07:34AM 29.9776 -95.2375 270° West 171 197 1,100 -960 Descending FlightAware ADS-B
07:34AM 29.9776 -95.2455 270° West 169 194 1,000 -840 Descending FlightAware ADS-B
07:34AM 29.9777 -95.2573 271° West 166 191 800 -960 Descending FlightAware ADS-B
07:35AM 29.9777 -95.2686 270° West 166 191 600 -960 Descending FlightAware ADS-B
07:35AM 29.9776 -95.2808 269° West 164 189 400 -840 Descending FlightAware ADS-B
07:35AM 29.9776 -95.2947 270° West 162 186 200 -780 Descending FlightAware ADS-B
07:35AM 29.9776 -95.3016 270° West 162 186 100  Descending FlightAware ADS-B
07:36AM 29.9786 -95.3256 270° West 181 208 200 120 Climbing Houston Center
07:38AM 29.9833 -95.3333 311° West  Level FlightAware Approximate